Time;durP1;ratioP1;P1;durP2;ratioP2;P2;SDS_P1;SDS_P2;PMS_P1;PMS_P2;Temp;Humidity;BMP_temperature;BMP_pressure;BME280_temperature;BME280_humidity;BME280_pressure;Samples;Min_cycle;Max_cycle;Signal;HPM_P1;HPM_P2
2023/04/25 00:01:48;;;;;;;11.40;7.40;;;;;;;11.16;73.14;100233.66;110360;1234;61654;-66
2023/04/25 00:04:17;;;;;;;11.20;5.90;;;;;;;11.14;73.01;100230.38;110355;1234;69784;-67
2023/04/25 00:06:46;;;;;;;9.80;6.60;;;;;;;11.09;73.38;100229.02;110305;1235;64868;-67
2023/04/25 00:09:15;;;;;;;10.40;6.30;;;;;;;11.05;73.53;100233.19;110163;1238;58399;-65
2023/04/25 00:11:44;;;;;;;7.50;6.10;;;;;;;10.96;74.30;100233.98;110199;1234;58297;-66
2023/04/25 00:14:14;;;;;;;7.90;6.20;;;;;;;10.92;74.36;100234.85;110094;1235;63762;-66
2023/04/25 00:16:43;;;;;;;11.20;6.20;;;;;;;10.89;74.44;100231.23;110191;1234;72167;-67
2023/04/25 00:19:13;;;;;;;9.60;5.90;;;;;;;10.86;74.59;100229.85;110193;1235;70829;-67
2023/04/25 00:21:42;;;;;;;11.50;6.40;;;;;;;10.83;74.66;100228.91;110189;1234;64100;-67
2023/04/25 00:24:12;;;;;;;13.20;6.60;;;;;;;10.80;74.79;100224.81;110115;1238;58290;-66
2023/04/25 00:26:41;;;;;;;12.10;5.90;;;;;;;10.77;74.94;100218.39;110165;1235;60531;-67
2023/04/25 00:29:10;;;;;;;7.40;5.50;;;;;;;10.73;75.28;100213.90;110087;1234;74807;-67
2023/04/25 00:31:39;;;;;;;11.60;5.70;;;;;;;10.70;74.97;100212.23;109924;1234;72603;-67
2023/04/25 00:34:08;;;;;;;10.70;5.70;;;;;;;10.67;74.82;100210.75;110197;1234;60766;-65
2023/04/25 00:36:37;;;;;;;11.40;5.90;;;;;;;10.62;74.64;100211.61;110309;1234;63262;-65
2023/04/25 00:39:06;;;;;;;11.50;6.10;;;;;;;10.60;74.80;100210.90;110195;1238;61337;-65
2023/04/25 00:41:36;;;;;;;13.50;5.50;;;;;;;10.58;74.89;100209.18;110237;1235;61193;-65
2023/04/25 00:44:07;;;;;;;14.40;5.40;;;;;;;10.58;74.43;100207.77;110193;1235;74786;-65
2023/04/25 00:46:36;;;;;;;9.80;5.80;;;;;;;10.55;74.21;100207.98;110305;1234;61983;-65
2023/04/25 00:49:06;;;;;;;8.90;5.70;;;;;;;10.50;74.73;100208.92;110322;1235;69649;-65
2023/04/25 00:51:35;;;;;;;10.80;6.10;;;;;;;10.41;75.72;100207.08;110229;1234;63707;-65
2023/04/25 00:54:04;;;;;;;9.90;5.40;;;;;;;10.32;76.46;100204.30;110214;1239;58341;-65
2023/04/25 00:56:33;;;;;;;9.80;5.40;;;;;;;10.24;76.99;100204.06;110254;1239;57824;-65
2023/04/25 00:59:02;;;;;;;11.90;5.60;;;;;;;10.14;78.01;100199.04;110357;1234;63810;-65
2023/04/25 01:01:31;;;;;;;9.00;5.50;;;;;;;10.04;78.72;100195.80;110279;1235;60925;-65
2023/04/25 01:04:01;;;;;;;8.20;5.40;;;;;;;9.94;79.42;100197.11;110018;1234;69757;-66
2023/04/25 01:06:31;;;;;;;11.20;5.50;;;;;;;9.87;79.98;100193.36;110192;1235;73461;-66
2023/04/25 01:09:02;;;;;;;11.20;5.70;;;;;;;9.81;80.52;100194.11;110152;1238;58371;-66
2023/04/25 01:11:31;;;;;;;11.00;5.70;;;;;;;9.78;80.82;100189.31;110292;1238;57719;-67
2023/04/25 01:14:01;;;;;;;11.30;5.70;;;;;;;9.78;80.49;100188.44;110304;1235;63240;-66
2023/04/25 01:16:31;;;;;;;9.50;6.20;;;;;;;9.78;80.61;100189.34;110226;1234;62690;-66
2023/04/25 01:19:00;;;;;;;10.70;5.60;;;;;;;9.79;80.26;100188.70;110149;1234;60026;-66
2023/04/25 01:21:30;;;;;;;6.90;5.40;;;;;;;9.83;80.31;100185.31;110194;1235;73830;-66
2023/04/25 01:23:59;;;;;;;13.60;6.40;;;;;;;9.86;79.58;100184.05;110072;1238;58429;-67
2023/04/25 01:26:29;;;;;;;7.40;5.60;;;;;;;9.95;78.94;100184.19;110027;1234;61262;-66
2023/04/25 01:28:59;;;;;;;9.80;5.20;;;;;;;9.98;78.31;100180.48;110085;1239;64313;-66
2023/04/25 01:31:28;;;;;;;9.80;5.80;;;;;;;9.97;78.27;100171.99;110086;1239;61689;-67
2023/04/25 01:33:57;;;;;;;9.40;5.50;;;;;;;10.04;77.82;100178.95;110371;1234;70567;-66
2023/04/25 01:36:30;;;;;;;11.30;5.60;;;;;;;10.06;77.75;100177.75;110306;1235;63243;-66
2023/04/25 01:39:00;;;;;;;10.80;5.50;;;;;;;10.06;77.78;100172.81;110274;1236;58667;-66
2023/04/25 01:41:29;;;;;;;12.10;6.10;;;;;;;10.08;77.39;100168.35;110109;1239;58257;-66
2023/04/25 01:43:58;;;;;;;10.80;6.00;;;;;;;10.13;77.00;100167.99;110201;1234;74278;-66
2023/04/25 01:46:28;;;;;;;10.80;5.80;;;;;;;10.13;77.02;100171.98;110093;1234;71912;-67
2023/04/25 01:48:58;;;;;;;10.50;5.10;;;;;;;10.08;77.96;100169.54;110245;1235;71033;-67
2023/04/25 01:51:27;;;;;;;12.20;5.60;;;;;;;10.03;78.79;100170.47;110241;1235;74731;-68
2023/04/25 01:53:57;;;;;;;10.60;5.40;;;;;;;9.98;79.42;100166.71;110215;1239;58292;-67
2023/04/25 01:56:33;;;;;;;10.80;5.80;;;;;;;9.93;79.79;100165.77;110141;1235;58324;-67
2023/04/25 01:59:04;;;;;;;11.10;6.00;;;;;;;9.87;80.32;100156.98;110324;1235;63748;-67
2023/04/25 02:01:51;;;;;;;10.80;5.60;;;;;;;9.82;80.46;100148.30;110173;1239;61991;-67
2023/04/25 02:04:24;;;;;;;8.00;5.50;;;;;;;9.78;80.27;100143.24;110247;1235;70473;-68
2023/04/25 02:06:53;;;;;;;8.90;5.90;;;;;;;9.80;79.68;100138.89;110112;1238;72499;-67
2023/04/25 02:09:23;;;;;;;10.90;5.60;;;;;;;9.84;79.12;100138.77;110105;1238;61403;-67
2023/04/25 02:11:55;;;;;;;;;;;;;;;9.92;77.46;100130.55;110073;1234;61588;-67
2023/04/25 02:14:54;;;;;;;8.50;5.10;;;;;;;10.00;76.13;100122.52;110112;1235;73337;-66
2023/04/25 02:17:35;;;;;;;13.50;5.20;;;;;;;10.10;74.93;100120.68;110192;1235;63883;-67
2023/04/25 02:20:05;;;;;;;11.10;5.30;;;;;;;10.16;74.79;100121.82;110273;1235;70046;-66
2023/04/25 02:22:35;;;;;;;11.80;5.70;;;;;;;10.20;74.17;100122.87;110247;1235;73535;-66
2023/04/25 02:25:07;;;;;;;9.60;5.00;;;;;;;10.22;74.18;100125.70;110285;1238;58224;-66
2023/04/25 02:27:37;;;;;;;10.10;5.50;;;;;;;10.23;74.51;100129.13;110166;1234;60493;-68
2023/04/25 02:30:06;;;;;;;10.30;5.30;;;;;;;10.25;74.17;100129.33;110287;1235;75172;-68
2023/04/25 02:32:35;;;;;;;16.80;5.20;;;;;;;10.26;74.09;100128.48;110399;1235;62247;-68
2023/04/25 02:35:06;;;;;;;11.20;5.30;;;;;;;10.27;74.15;100130.55;110295;1235;70393;-68
2023/04/25 02:37:39;;;;;;;12.10;5.70;;;;;;;10.26;74.42;100134.59;110294;1235;74390;-68
2023/04/25 02:40:08;;;;;;;;;;;;;;;10.22;74.81;100130.89;110114;1241;61850;-68
2023/04/25 02:42:37;;;;;;;15.50;6.30;;;;;;;10.20;75.32;100132.41;110314;1238;57749;-68
2023/04/25 02:45:07;;;;;;;12.30;5.60;;;;;;;10.20;75.74;100135.25;110337;1238;63014;-68
2023/04/25 02:47:36;;;;;;;11.80;6.00;;;;;;;10.15;76.09;100131.59;110410;1236;69607;-68
2023/04/25 02:50:06;;;;;;;13.50;5.60;;;;;;;10.09;76.78;100132.24;110227;1235;69251;-68
2023/04/25 02:52:35;;;;;;;8.30;5.20;;;;;;;10.07;76.20;100131.51;110321;1238;62999;-68
2023/04/25 02:55:13;;;;;;;10.00;5.20;;;;;;;10.11;75.51;100130.39;110232;1238;58270;-68
2023/04/25 02:57:43;;;;;;;11.50;6.00;;;;;;;10.13;75.19;100127.97;110104;1235;61307;-68
2023/04/25 03:00:14;;;;;;;11.60;5.70;;;;;;;10.12;75.26;100129.94;110219;1235;72855;-66
2023/04/25 03:02:43;;;;;;;9.80;5.10;;;;;;;10.12;74.96;100129.80;110240;1238;62125;-68
2023/04/25 03:05:12;;;;;;;7.50;4.80;;;;;;;10.15;74.71;100126.80;110353;1236;60030;-68
2023/04/25 03:07:43;;;;;;;11.10;5.50;;;;;;;10.15;74.75;100129.21;110370;1234;63260;-66
2023/04/25 03:10:12;;;;;;;8.00;5.00;;;;;;;10.15;74.52;100129.55;110416;1235;58350;-66
2023/04/25 03:12:41;;;;;;;9.70;5.00;;;;;;;10.16;74.23;100126.54;110088;1238;61276;-68
2023/04/25 03:15:11;;;;;;;7.50;4.90;;;;;;;10.17;73.72;100126.42;110260;1235;65084;-67
2023/04/25 03:17:40;;;;;;;11.60;5.80;;;;;;;10.18;73.66;100126.89;110355;1235;70412;-67
2023/04/25 03:20:10;;;;;;;8.30;5.40;;;;;;;10.17;73.20;100131.64;110204;1235;70132;-66
2023/04/25 03:22:40;;;;;;;14.10;5.20;;;;;;;10.16;73.12;100134.00;110283;1235;73869;-67
2023/04/25 03:25:08;;;;;;;10.10;5.50;;;;;;;10.16;72.89;100131.91;110176;1238;62762;-66
2023/04/25 03:27:37;;;;;;;11.80;5.40;;;;;;;10.17;72.72;100130.93;110351;1235;61702;-66
2023/04/25 03:30:07;;;;;;;13.30;5.40;;;;;;;10.20;72.23;100132.27;110281;1235;74903;-67
2023/04/25 03:32:37;;;;;;;14.60;6.30;;;;;;;10.22;71.89;100131.28;110338;1235;62003;-67
2023/04/25 03:35:08;;;;;;;10.00;5.10;;;;;;;10.18;71.76;100132.64;110241;1233;69726;-67
2023/04/25 03:37:37;;;;;;;10.90;5.80;;;;;;;10.19;72.17;100130.61;110314;1239;64153;-67
2023/04/25 03:40:08;;;;;;;14.60;7.00;;;;;;;10.23;71.43;100132.59;110404;1236;59489;-68
2023/04/25 03:43:21;;;;;;;12.00;5.50;;;;;;;10.25;71.09;100135.08;110322;1235;61747;-68
2023/04/25 03:45:58;;;;;;;15.30;6.10;;;;;;;10.24;70.99;100136.86;110420;1234;74730;-65
2023/04/25 03:48:27;;;;;;;12.80;5.00;;;;;;;10.22;70.57;100135.95;110291;1238;71718;-65
2023/04/25 03:50:56;;;;;;;11.00;5.80;;;;;;;10.22;70.59;100136.14;110269;1238;60425;-65
2023/04/25 03:53:25;;;;;;;13.00;5.50;;;;;;;10.24;70.52;100138.10;110254;1235;64150;-66
2023/04/25 03:56:44;;;;;;;12.10;5.40;;;;;;;10.23;70.17;100138.28;109991;1238;57781;-66
2023/04/25 03:59:18;;;;;;;11.80;5.50;;;;;;;10.22;70.35;100137.88;110282;1238;61227;-66
2023/04/25 04:01:47;;;;;;;12.90;6.40;;;;;;;10.30;70.35;100136.19;110313;1239;74131;-64
2023/04/25 04:04:17;;;;;;;8.60;6.20;;;;;;;10.33;70.83;100137.17;110221;1239;72672;-66
2023/04/25 04:06:46;;;;;;;18.50;7.30;;;;;;;10.37;70.97;100135.67;110196;1238;59744;-67
2023/04/25 04:09:20;;;;;;;10.00;5.80;;;;;;;10.47;71.08;100138.69;110201;1237;73783;-67
2023/04/25 04:11:49;;;;;;;13.40;6.40;;;;;;;10.53;70.44;100138.37;110151;1238;60767;-67
2023/04/25 04:14:18;;;;;;;15.70;6.70;;;;;;;10.55;69.81;100134.56;110197;1239;60937;-66
2023/04/25 04:16:48;;;;;;;10.60;6.20;;;;;;;10.64;69.50;100134.17;110062;1235;63563;-67
2023/04/25 04:19:17;;;;;;;9.20;5.30;;;;;;;10.64;69.24;100131.38;110271;1234;61659;-67
2023/04/25 04:21:52;;;;;;;11.60;5.50;;;;;;;10.67;69.33;100135.66;110316;1234;70477;-68
2023/04/25 04:24:22;;;;;;;12.60;5.80;;;;;;;10.68;69.22;100135.20;110301;1235;74297;-67
2023/04/25 04:26:56;;;;;;;9.70;5.20;;;;;;;10.76;69.25;100133.48;110296;1239;60684;-69
2023/04/25 04:29:37;;;;;;;11.20;5.80;;;;;;;10.87;69.25;100135.24;110435;1236;58171;-67
2023/04/25 04:32:15;;;;;;;11.90;5.80;;;;;;;10.89;68.76;100133.98;110326;1235;71632;-69
2023/04/25 04:34:44;;;;;;;16.40;5.90;;;;;;;10.83;68.91;100134.87;110309;1238;61408;-71
2023/04/25 04:37:15;;;;;;;10.90;5.90;;;;;;;10.96;69.07;100136.36;110303;1233;71012;-67
2023/04/25 04:39:45;;;;;;;12.50;6.00;;;;;;;11.02;68.66;100134.52;110297;1233;74525;-68
2023/04/25 04:42:56;;;;;;;11.40;5.70;;;;;;;11.08;68.41;100134.19;110159;1234;61997;-66
2023/04/25 04:45:40;;;;;;;14.40;6.30;;;;;;;11.15;68.51;100134.98;110404;1234;58316;-66
2023/04/25 04:48:21;;;;;;;11.30;6.00;;;;;;;11.11;68.41;100131.14;110308;1235;63792;-68
2023/04/25 04:51:08;;;;;;;8.90;5.50;;;;;;;11.11;68.67;100129.02;110390;1237;61529;-66
2023/04/25 04:53:49;;;;;;;13.10;6.60;;;;;;;11.30;68.24;100125.14;110338;1235;59192;-66
2023/04/25 04:56:31;;;;;;;12.10;6.10;;;;;;;11.38;67.92;100123.11;110205;1235;73868;-67
2023/04/25 04:59:59;;;;;;;13.80;6.00;;;;;;;11.46;67.75;100124.20;109735;1244;62148;-66
2023/04/25 05:02:53;;;;;;;9.50;5.50;;;;;;;11.45;67.56;100118.98;109510;1241;59485;-66
2023/04/25 05:05:50;;;;;;;11.50;5.70;;;;;;;11.28;68.07;100122.75;110099;1235;63866;-67
2023/04/25 05:08:38;;;;;;;8.70;5.20;;;;;;;11.27;68.68;100121.58;110164;1235;72848;-67
2023/04/25 05:11:23;;;;;;;13.50;5.70;;;;;;;11.39;68.68;100118.27;110081;1236;62648;-67
2023/04/25 05:14:11;;;;;;;14.10;6.20;;;;;;;11.49;68.64;100111.88;110282;1235;74418;-68
2023/04/25 05:17:31;;;;;;;10.60;5.30;;;;;;;11.42;68.35;100110.41;110232;1238;60760;-69
2023/04/25 05:20:53;;;;;;;9.50;5.30;;;;;;;11.49;68.55;100112.23;110101;1235;57709;-69
2023/04/25 05:23:28;;;;;;;10.90;5.40;;;;;;;11.32;69.28;100112.40;110187;1233;74379;-68
2023/04/25 05:26:51;;;;;;;16.20;6.20;;;;;;;11.37;69.34;100115.98;110351;1236;71885;-70
2023/04/25 05:29:29;;;;;;;11.40;5.90;;;;;;;11.44;69.34;100113.73;110253;1235;60431;-70
2023/04/25 05:32:08;;;;;;;10.60;5.60;;;;;;;11.24;69.89;100106.89;110352;1234;72821;-69
2023/04/25 05:34:37;;;;;;;9.60;5.10;;;;;;;11.40;69.65;100104.95;110156;1237;61151;-70
2023/04/25 05:37:11;;;;;;;15.50;6.30;;;;;;;11.52;69.53;100107.81;110161;1235;62486;-70
2023/04/25 05:39:51;;;;;;;11.60;5.60;;;;;;;11.68;69.32;100105.16;110189;1235;74856;-71
2023/04/25 05:42:34;;;;;;;11.60;5.60;;;;;;;11.84;69.05;100098.42;110111;1237;71994;-71
2023/04/25 05:45:21;;;;;;;14.40;6.40;;;;;;;12.00;68.51;100089.20;110201;1233;71258;-70
2023/04/25 05:47:57;;;;;;;11.20;6.00;;;;;;;11.90;68.30;100097.18;110154;1236;62842;-71
2023/04/25 05:50:44;;;;;;;11.30;5.30;;;;;;;11.84;69.16;100094.58;110313;1236;58269;-70
2023/04/25 05:53:59;;;;;;;11.40;6.00;;;;;;;11.84;69.41;100091.75;110312;1234;61264;-69
2023/04/25 05:56:29;;;;;;;14.30;5.50;;;;;;;12.03;69.31;100092.88;110187;1234;74668;-70
2023/04/25 05:58:57;;;;;;;12.40;5.40;;;;;;;12.16;68.73;100088.90;110135;1234;72605;-70
2023/04/25 06:01:26;;;;;;;12.90;6.40;;;;;;;12.32;68.92;100086.84;110186;1235;71037;-70
2023/04/25 06:03:55;;;;;;;11.00;6.40;;;;;;;12.48;68.57;100084.84;110172;1235;74284;-70
2023/04/25 06:06:27;;;;;;;12.10;5.60;;;;;;;12.65;67.97;100082.10;110173;1235;58349;-69
2023/04/25 06:08:56;;;;;;;12.90;6.20;;;;;;;12.79;67.53;100086.03;110324;1234;58268;-70
2023/04/25 06:11:25;;;;;;;12.00;6.10;;;;;;;12.69;68.14;100085.20;110413;1234;63152;-69
2023/04/25 06:13:54;;;;;;;11.40;5.60;;;;;;;12.73;68.17;100086.75;110462;1234;60869;-70
2023/04/25 06:16:25;;;;;;;9.00;4.90;;;;;;;12.60;68.48;100083.40;110371;1233;59977;-70
2023/04/25 06:18:55;;;;;;;13.10;6.10;;;;;;;12.59;68.97;100083.21;110372;1235;72957;-70
2023/04/25 06:21:24;;;;;;;10.60;7.10;;;;;;;12.79;68.70;100082.61;110370;1235;60894;-71
2023/04/25 06:23:52;;;;;;;10.80;5.60;;;;;;;12.90;68.75;100077.73;110408;1234;60841;-70
2023/04/25 06:26:24;;;;;;;11.60;5.90;;;;;;;12.98;68.57;100075.79;110401;1235;63661;-70
2023/04/25 06:28:53;;;;;;;7.70;5.10;;;;;;;13.13;67.71;100078.63;110387;1233;71498;-71
2023/04/25 06:31:22;;;;;;;10.60;5.50;;;;;;;13.27;67.51;100079.05;110524;1234;70794;-70
2023/04/25 06:33:54;;;;;;;12.50;5.90;;;;;;;13.36;67.47;100081.15;110403;1234;63834;-71
2023/04/25 06:36:25;;;;;;;12.80;5.60;;;;;;;13.48;66.72;100080.23;110421;1236;61330;-71
2023/04/25 06:38:55;;;;;;;14.50;6.40;;;;;;;13.34;67.34;100081.02;110399;1234;57796;-70
2023/04/25 06:41:24;;;;;;;10.30;5.40;;;;;;;13.39;67.21;100079.16;110482;1235;62981;-69
2023/04/25 06:43:53;;;;;;;13.10;5.10;;;;;;;13.60;66.51;100076.59;110328;1233;71456;-70
2023/04/25 06:46:30;;;;;;;14.50;5.90;;;;;;;13.80;66.14;100072.30;110263;1233;71168;-70
2023/04/25 06:48:59;;;;;;;13.00;6.10;;;;;;;14.06;64.87;100075.89;110424;1234;74972;-70
2023/04/25 06:51:29;;;;;;;15.60;6.20;;;;;;;14.22;64.62;100073.42;110322;1235;60392;-69
2023/04/25 06:53:59;;;;;;;13.10;6.10;;;;;;;14.19;64.34;100078.98;110322;1234;61870;-70
2023/04/25 06:56:35;;;;;;;8.70;5.00;;;;;;;14.01;64.90;100077.88;110338;1234;63795;-70
2023/04/25 06:59:10;;;;;;;12.30;6.20;;;;;;;14.08;64.95;100078.98;110346;1234;72166;-70
2023/04/25 07:01:41;;;;;;;11.70;5.20;;;;;;;13.86;66.01;100069.39;110359;1235;70679;-70
2023/04/25 07:04:14;;;;;;;12.50;5.80;;;;;;;13.93;66.32;100074.31;110361;1234;74450;-71
2023/04/25 07:06:49;;;;;;;12.50;5.50;;;;;;;13.81;66.87;100078.06;110398;1236;58216;-71
2023/04/25 07:09:20;;;;;;;13.30;5.70;;;;;;;13.92;66.65;100083.00;110457;1235;60445;-70
2023/04/25 07:11:50;;;;;;;10.20;5.10;;;;;;;13.89;67.30;100081.20;110364;1235;64238;-70
2023/04/25 07:14:19;;;;;;;10.60;5.80;;;;;;;13.92;67.10;100080.01;110356;1235;71484;-70
2023/04/25 07:16:48;;;;;;;6.80;4.40;;;;;;;14.11;66.48;100081.72;110415;1233;70898;-70
2023/04/25 07:19:17;;;;;;;13.20;5.70;;;;;;;14.01;66.69;100082.46;110423;1235;73958;-70
2023/04/25 07:21:46;;;;;;;11.20;5.70;;;;;;;13.79;67.44;100080.23;110250;1236;61604;-70
2023/04/25 07:24:15;;;;;;;14.70;6.70;;;;;;;13.85;67.43;100078.88;110338;1235;60822;-71
2023/04/25 07:26:46;;;;;;;11.60;6.30;;;;;;;13.85;67.71;100074.91;110212;1234;74742;-70
2023/04/25 07:29:28;;;;;;;9.50;5.60;;;;;;;14.10;67.11;100073.27;110319;1235;70769;-70
2023/04/25 07:31:59;;;;;;;12.30;5.90;;;;;;;14.20;66.77;100071.92;110330;1234;59923;-69
2023/04/25 07:34:29;;;;;;;9.60;5.40;;;;;;;14.21;66.59;100069.48;110307;1235;73850;-70
2023/04/25 07:36:59;;;;;;;15.10;6.00;;;;;;;14.19;66.92;100070.94;110336;1234;61010;-69
2023/04/25 07:39:31;;;;;;;13.10;5.80;;;;;;;14.17;67.05;100071.66;110252;1233;58481;-71
2023/04/25 07:42:02;;;;;;;13.50;5.90;;;;;;;14.23;66.91;100072.25;110375;1234;63789;-71
2023/04/25 07:44:31;;;;;;;12.40;5.50;;;;;;;14.22;66.97;100073.98;110457;1235;61676;-70
2023/04/25 07:47:00;;;;;;;11.80;6.20;;;;;;;14.01;67.63;100074.43;110397;1233;59489;-70
2023/04/25 07:49:32;;;;;;;13.20;6.70;;;;;;;13.94;68.15;100074.55;110355;1235;63299;-71
2023/04/25 07:52:03;;;;;;;11.70;6.10;;;;;;;13.66;69.16;100075.38;110331;1237;60569;-70
2023/04/25 07:54:33;;;;;;;10.70;5.80;;;;;;;13.87;69.24;100075.75;110244;1233;61002;-70
2023/04/25 07:57:06;;;;;;;12.40;6.60;;;;;;;13.96;68.87;100076.52;110364;1234;64200;-69
2023/04/25 07:59:35;;;;;;;9.70;6.40;;;;;;;13.95;68.86;100077.59;110412;1236;61782;-69
2023/04/25 08:02:05;;;;;;;14.10;6.40;;;;;;;13.89;69.33;100077.35;110237;1233;60011;-70
2023/04/25 08:04:34;;;;;;;10.10;6.30;;;;;;;13.92;69.17;100080.34;110457;1235;63243;-71
2023/04/25 08:07:06;;;;;;;13.90;7.10;;;;;;;13.98;69.47;100082.38;110453;1235;60456;-70
2023/04/25 08:09:46;;;;;;;17.30;7.30;;;;;;;13.92;69.31;100076.36;110320;1234;61565;-70
2023/04/25 08:12:23;;;;;;;15.70;7.00;;;;;;;14.02;69.58;100076.83;110319;1233;74379;-70
2023/04/25 08:14:53;;;;;;;13.30;6.40;;;;;;;14.28;68.61;100078.61;110393;1236;62057;-70
2023/04/25 08:17:22;;;;;;;15.10;7.50;;;;;;;14.14;68.81;100078.27;110311;1234;70330;-70
2023/04/25 08:19:51;;;;;;;13.50;7.50;;;;;;;13.89;69.22;100074.59;110276;1234;74328;-70
2023/04/25 08:22:26;;;;;;;12.00;7.40;;;;;;;14.20;69.01;100079.71;110133;1234;253985;-70
2023/04/25 08:25:07;;;;;;;16.20;8.00;;;;;;;14.16;69.07;100085.64;110291;1234;61211;-71
2023/04/25 08:27:36;;;;;;;10.10;6.90;;;;;;;14.34;68.94;100082.20;110436;1234;75087;-70
2023/04/25 08:30:08;;;;;;;15.70;7.30;;;;;;;14.21;68.94;100083.91;110335;1234;72553;-71
2023/04/25 08:32:38;;;;;;;15.10;7.10;;;;;;;14.14;69.46;100085.77;110329;1234;69112;-71
2023/04/25 08:35:26;;;;;;;15.70;7.10;;;;;;;14.50;68.66;100085.73;110346;1234;63261;-70
2023/04/25 08:37:55;;;;;;;14.90;7.20;;;;;;;14.91;67.44;100086.94;110342;1237;58299;-70
2023/04/25 08:40:29;;;;;;;10.70;7.10;;;;;;;14.55;68.12;100087.71;110385;1234;57775;-70
2023/04/25 08:43:11;;;;;;;12.70;6.90;;;;;;;14.68;68.05;100087.15;110422;1234;63779;-70
2023/04/25 08:45:42;;;;;;;16.90;7.70;;;;;;;14.86;67.25;100085.02;110056;1234;61731;-70
2023/04/25 08:48:17;;;;;;;12.10;6.80;;;;;;;14.88;67.28;100088.98;110159;1234;59251;-70
2023/04/25 08:50:52;;;;;;;11.20;6.40;;;;;;;14.94;67.03;100082.73;110295;1234;73792;-70
2023/04/25 08:53:32;;;;;;;15.40;7.90;;;;;;;14.64;68.09;100082.44;110296;1235;61190;-71
2023/04/25 08:56:05;;;;;;;11.10;6.20;;;;;;;14.53;68.46;100079.73;110136;1234;60940;-70
2023/04/25 08:58:38;;;;;;;11.90;6.60;;;;;;;14.70;68.69;100084.48;110319;1234;64356;-70
2023/04/25 09:01:08;;;;;;;11.20;7.00;;;;;;;14.95;67.57;100082.02;110310;1233;72139;-70
2023/04/25 09:03:46;;;;;;;11.00;6.90;;;;;;;14.97;68.04;100081.30;110306;1234;70913;-71
2023/04/25 09:06:17;;;;;;;14.10;7.60;;;;;;;15.08;68.17;100080.67;110061;1235;74525;-70
2023/04/25 09:08:46;;;;;;;13.80;6.90;;;;;;;15.35;67.38;100079.88;109958;1237;58289;-71
2023/04/25 09:11:16;;;;;;;13.60;7.50;;;;;;;15.76;66.33;100077.40;109986;1237;57795;-71
2023/04/25 09:13:48;;;;;;;12.70;8.10;;;;;;;15.70;66.52;100079.59;109788;1237;73599;-71
2023/04/25 09:16:24;;;;;;;10.50;6.50;;;;;;;15.57;66.70;100081.98;109936;1238;62043;-71
2023/04/25 09:19:26;;;;;;;13.80;7.90;;;;;;;15.24;67.45;100085.55;110059;1236;70475;-70
2023/04/25 09:22:14;;;;;;;14.60;8.20;;;;;;;14.91;69.76;100091.67;109918;1237;73355;-70
2023/04/25 09:24:45;;;;;;;11.70;6.80;;;;;;;14.70;70.59;100092.82;110014;1238;57790;-71
2023/04/25 09:27:26;;;;;;;12.40;7.10;;;;;;;14.15;73.12;100097.61;109804;1237;61295;-71
2023/04/25 09:30:12;;;;;;;10.10;7.20;;;;;;;13.93;74.61;100095.84;109831;1236;74925;-71
2023/04/25 09:33:30;;;;;;;12.10;7.10;;;;;;;13.85;76.05;100100.83;109889;1238;62423;-71
2023/04/25 09:36:07;;;;;;;11.70;7.00;;;;;;;13.70;79.68;100101.50;109938;1238;59555;-70
2023/04/25 09:38:46;;;;;;;12.10;7.60;;;;;;;13.52;85.42;100098.20;109973;1238;62530;-70
2023/04/25 09:41:25;;;;;;;13.60;8.00;;;;;;;13.02;96.62;100091.48;110052;1238;63027;-70
2023/04/25 09:44:00;;;;;;;11.00;8.00;;;;;;;12.83;100.00;100092.49;109938;1237;57716;-70
2023/04/25 09:46:38;;;;;;;14.20;9.50;;;;;;;12.57;100.00;100093.94;110080;1235;74451;-70
2023/04/25 09:49:14;;;;;;;12.40;9.00;;;;;;;12.58;100.00;100097.94;109894;1235;72601;-70
2023/04/25 09:52:00;;;;;;;10.60;8.50;;;;;;;12.49;100.00;100094.41;110076;1238;60468;-70
2023/04/25 09:54:36;;;;;;;11.60;7.60;;;;;;;12.33;100.00;100093.90;110041;1235;73848;-71
2023/04/25 09:57:19;;;;;;;11.00;9.50;;;;;;;12.13;100.00;100092.54;109981;1235;62796;-70
2023/04/25 09:59:50;;;;;;;15.80;9.00;;;;;;;12.09;100.00;100093.74;110069;1236;58155;-69
2023/04/25 10:02:27;;;;;;;12.50;8.80;;;;;;;12.17;100.00;100089.56;109945;1238;74328;-70
2023/04/25 10:05:03;;;;;;;12.40;9.10;;;;;;;12.17;100.00;100086.80;109938;1239;61438;-70
2023/04/25 10:07:40;;;;;;;13.20;8.70;;;;;;;12.21;100.00;100085.92;110089;1236;70499;-70
2023/04/25 10:10:13;;;;;;;13.40;9.70;;;;;;;12.14;100.00;100084.60;110027;1238;63029;-70
2023/04/25 10:12:44;;;;;;;13.70;9.40;;;;;;;12.17;100.00;100080.83;110204;1238;58254;-70
2023/04/25 10:15:15;;;;;;;13.20;9.60;;;;;;;12.08;100.00;100081.80;110303;1234;61248;-69
2023/04/25 10:17:44;;;;;;;15.40;10.40;;;;;;;11.88;100.00;100086.52;110095;1234;64342;-70
2023/04/25 10:20:14;;;;;;;15.80;11.40;;;;;;;12.00;100.00;100087.94;110307;1234;71971;-70
2023/04/25 10:22:47;;;;;;;17.20;11.80;;;;;;;12.06;100.00;100085.86;110212;1235;68813;-71
2023/04/25 10:25:17;;;;;;;12.40;9.30;;;;;;;12.15;100.00;100083.83;110279;1234;74277;-69
2023/04/25 10:27:46;;;;;;;15.20;10.20;;;;;;;12.15;100.00;100081.67;110195;1238;58342;-70
2023/04/25 10:30:15;;;;;;;13.90;10.80;;;;;;;12.19;100.00;100079.77;110276;1234;60276;-70
2023/04/25 10:32:47;;;;;;;15.20;11.10;;;;;;;12.21;100.00;100068.77;110288;1234;73465;-70
2023/04/25 10:35:24;;;;;;;13.20;9.50;;;;;;;12.25;100.00;100070.39;110210;1234;72112;-70
2023/04/25 10:38:14;;;;;;;12.80;9.90;;;;;;;12.28;100.00;100066.13;110081;1235;69174;-70
2023/04/25 10:41:08;;;;;;;14.30;10.10;;;;;;;12.27;100.00;100065.45;110022;1241;64220;-70
2023/04/25 10:43:41;;;;;;;;;;;;;;;12.28;100.00;100059.75;109986;1240;58277;-71
2023/04/25 10:46:24;;;;;;;15.70;10.30;;;;;;;12.26;100.00;100060.85;110225;1238;61562;-71
2023/04/25 10:48:59;;;;;;;15.70;11.80;;;;;;;12.30;100.00;100058.75;110198;1234;75287;-70
2023/04/25 10:51:30;;;;;;;14.70;11.10;;;;;;;12.35;100.00;100062.96;110298;1234;73623;-70
2023/04/25 10:54:11;;;;;;;;;;;;;;;12.37;100.00;100058.78;110328;1235;68292;-70
2023/04/25 10:56:44;;;;;;;12.20;9.20;;;;;;;12.37;100.00;100058.04;110197;1238;63262;-71
2023/04/25 10:59:20;;;;;;;12.60;9.80;;;;;;;12.40;100.00;100052.09;110151;1234;60696;-70
2023/04/25 11:01:54;;;;;;;16.20;9.60;;;;;;;12.46;100.00;100052.02;110180;1234;58189;-71
2023/04/25 11:04:33;;;;;;;12.80;9.50;;;;;;;12.53;100.00;100053.00;110121;1239;74347;-71
2023/04/25 11:07:05;;;;;;;12.60;9.20;;;;;;;12.53;100.00;100050.14;110153;1234;72658;-71
2023/04/25 11:09:39;;;;;;;13.40;9.20;;;;;;;12.66;100.00;100047.56;110280;1234;70042;-70
2023/04/25 11:12:11;;;;;;;;;;;;;;;12.77;100.00;100048.51;110158;1234;74215;-70
2023/04/25 11:14:41;;;;;;;14.90;9.10;;;;;;;12.93;100.00;100049.45;110154;1234;58304;-71
2023/04/25 11:17:10;;;;;;;14.90;9.40;;;;;;;13.08;100.00;100046.92;110246;1234;61232;-70
2023/04/25 11:19:40;;;;;;;13.60;8.40;;;;;;;13.21;100.00;100046.39;110401;1233;64405;-71
2023/04/25 11:22:10;;;;;;;12.90;8.90;;;;;;;13.46;100.00;100039.77;110355;1233;72152;-70
2023/04/25 11:24:39;;;;;;;12.80;8.00;;;;;;;13.62;100.00;100036.55;110452;1234;59779;-70
2023/04/25 11:27:08;;;;;;;13.70;8.20;;;;;;;13.67;100.00;100031.02;110207;1234;63349;-70
2023/04/25 11:29:37;;;;;;;10.90;7.50;;;;;;;13.66;100.00;100032.00;110314;1238;57809;-70
2023/04/25 11:32:07;;;;;;;7.20;6.50;;;;;;;13.52;100.00;100028.05;110439;1234;58246;-70
2023/04/25 11:34:36;;;;;;;11.50;7.30;;;;;;;13.59;100.00;100024.77;110192;1234;62992;-70
2023/04/25 11:37:06;;;;;;;11.40;6.90;;;;;;;13.35;100.00;100021.60;110302;1235;61847;-71
2023/04/25 11:39:35;;;;;;;9.80;7.60;;;;;;;13.23;100.00;100018.40;110328;1234;70672;-70
2023/04/25 11:42:05;;;;;;;10.60;7.70;;;;;;;13.21;100.00;100019.60;110051;1235;63616;-70
2023/04/25 11:44:40;;;;;;;13.10;8.40;;;;;;;13.21;100.00;100018.91;110080;1236;63025;-70